Time;durP1;ratioP1;P1;durP2;ratioP2;P2;SDS_P1;SDS_P2;PMS_P1;PMS_P2;Temp;Humidity;BMP_temperature;BMP_pressure;BME280_temperature;BME280_humidity;BME280_pressure;Samples;Min_cycle;Max_cycle;Signal;HPM_P1;HPM_P2
2022/08/03 00:01:51;;;;;;;;;13.50;12.50;;;;;26.43;46.77;100659.56;146612;721;45020;-77
2022/08/03 00:04:50;;;;;;;;;13.75;13.75;;;;;26.44;48.18;100663.09;146606;581;46016;-80
2022/08/03 00:08:00;;;;;;;;;14.25;12.50;;;;;26.31;48.52;100658.88;146608;569;46010;-82
2022/08/03 00:11:03;;;;;;;;;11.25;10.50;;;;;26.26;48.05;100651.84;146606;583;46014;-79
2022/08/03 00:13:59;;;;;;;;;10.00;10.00;;;;;26.31;47.86;100656.22;146609;665;46020;-81
2022/08/03 00:16:54;;;;;;;;;12.50;11.25;;;;;26.33;49.14;100662.38;146607;667;46017;-81
2022/08/03 00:19:54;;;;;;;;;11.00;11.00;;;;;26.22;48.43;100662.53;146609;664;46012;-80
2022/08/03 00:22:51;;;;;;;;;14.00;11.25;;;;;26.12;48.13;100656.47;146606;563;46016;-75
2022/08/03 00:25:43;;;;;;;;;9.50;9.50;;;;;26.09;49.91;100659.16;146610;601;45028;-77
2022/08/03 00:28:42;;;;;;;;;11.25;11.00;;;;;26.00;48.69;100664.59;146607;563;46014;-77
2022/08/03 00:31:47;;;;;;;;;12.50;11.75;;;;;25.97;48.72;100664.63;146608;564;46021;-77
2022/08/03 00:34:39;;;;;;;;;11.50;10.25;;;;;25.96;49.08;100666.41;146609;597;46012;-75
2022/08/03 00:37:34;;;;;;;;;10.50;9.50;;;;;25.92;48.11;100662.06;146606;605;46020;-84
2022/08/03 00:40:35;;;;;;;;;10.75;10.75;;;;;25.98;48.04;100669.03;146610;575;45017;-80
2022/08/03 00:43:32;;;;;;;;;11.75;11.75;;;;;26.03;48.49;100669.88;146609;619;46010;-77
2022/08/03 00:46:26;;;;;;;;;14.00;10.50;;;;;26.03;47.65;100664.56;146613;658;46012;-77
2022/08/03 00:49:31;;;;;;;;;10.00;10.00;;;;;26.08;47.50;100653.87;146612;588;45028;-78
2022/08/03 00:52:27;;;;;;;;;12.00;11.75;;;;;26.18;47.55;100663.47;146608;564;45920;-78
2022/08/03 00:55:33;;;;;;;;;10.00;10.00;;;;;26.27;47.08;100660.69;146610;566;46034;-78
2022/08/03 00:58:29;;;;;;;;;11.75;10.50;;;;;26.33;47.33;100667.72;146607;583;46012;-80
2022/08/03 01:01:21;;;;;;;;;11.00;11.00;;;;;26.32;46.73;100666.81;146609;621;46011;-83
2022/08/03 01:04:16;;;;;;;;;12.25;11.75;;;;;26.37;46.38;100666.75;146607;655;46012;-81
2022/08/03 01:08:08;;;;;;;;;11.75;11.75;;;;;25.39;45.76;100498.06;146610;647;46020;-81
2022/08/03 01:11:33;;;;;;;;;11.50;11.25;;;;;25.75;45.41;100586.97;146606;706;46016;-76
2022/08/03 01:14:43;;;;;;;;;10.00;10.00;;;;;26.13;46.24;100667.97;146607;569;46010;-77
2022/08/03 01:18:06;;;;;;;;;11.00;9.75;;;;;26.05;45.73;100672.53;146608;629;46014;-78
2022/08/03 01:21:15;;;;;;;;;10.00;10.00;;;;;25.95;45.93;100675.31;146608;578;46020;-77
2022/08/03 01:24:41;;;;;;;;;10.25;9.50;;;;;25.33;45.34;100563.63;146623;692;46016;-73
2022/08/03 01:28:22;;;;;;;;;10.25;10.25;;;;;25.89;45.70;100669.16;146624;586;46020;-76
2022/08/03 01:31:24;;;;;;;;;11.00;11.00;;;;;25.80;46.16;100659.53;146618;655;46017;-88
2022/08/03 01:34:24;;;;;;;;;10.00;10.00;;;;;25.73;46.18;100661.38;146623;664;45020;-78
2022/08/03 01:37:32;;;;;;;;;10.25;10.25;;;;;25.63;46.27;100662.34;146619;632;46012;-79
2022/08/03 01:40:32;;;;;;;;;11.50;11.50;;;;;25.56;46.16;100652.72;146624;622;46010;-83
2022/08/03 01:43:51;;;;;;;;;11.25;9.75;;;;;25.59;46.49;100663.31;146625;605;46012;-82
2022/08/03 01:46:50;;;;;;;;;11.75;11.00;;;;;25.50;46.73;100664.28;146625;578;46021;-84
2022/08/03 01:50:02;;;;;;;;;8.25;7.25;;;;;24.76;45.93;100567.72;146628;696;45016;-83
2022/08/03 01:53:13;;;;;;;;;13.25;11.75;;;;;25.34;46.38;100662.69;146624;593;46020;-84
2022/08/03 01:56:36;;;;;;;;;10.25;9.75;;;;;24.40;45.93;100480.56;146621;612;46016;-81
2022/08/03 01:59:36;;;;;;;;;9.00;9.00;;;;;25.42;45.65;100654.63;146630;612;45020;-78
2022/08/03 02:02:39;;;;;;;;;7.75;7.75;;;;;25.49;45.92;100662.53;146624;679;45034;-77
2022/08/03 02:05:35;;;;;;;;;9.75;9.75;;;;;25.55;46.30;100662.47;146627;692;45020;-80
2022/08/03 02:08:40;;;;;;;;;10.00;10.00;;;;;25.54;45.81;100663.34;146626;593;45017;-86
2022/08/03 02:11:55;;;;;;;;;9.25;9.00;;;;;25.50;45.52;100661.63;146628;569;45010;-85
2022/08/03 02:15:14;;;;;;;;;10.50;10.25;;;;;25.46;45.86;100653.72;146621;569;45921;-82
2022/08/03 02:18:08;;;;;;;;;10.75;10.25;;;;;25.43;46.23;100656.41;146628;637;45033;-80
2022/08/03 02:21:03;;;;;;;;;10.75;10.75;;;;;25.39;46.68;100657.31;146625;643;46014;-76
2022/08/03 02:23:59;;;;;;;;;10.00;8.75;;;;;25.35;46.46;100669.75;146626;590;45020;-77
2022/08/03 02:26:57;;;;;;;;;13.00;12.75;;;;;25.32;46.43;100661.81;146622;618;46016;-78
2022/08/03 02:30:11;;;;;;;;;10.50;10.50;;;;;25.24;46.25;100656.59;146623;592;46021;-76
2022/08/03 02:33:06;;;;;;;;;9.75;9.00;;;;;25.18;46.48;100658.44;146619;593;46921;-79
2022/08/03 02:36:02;;;;;;;;;11.25;11.00;;;;;25.15;46.73;100669.97;146622;618;46010;-76
2022/08/03 02:39:06;;;;;;;;;10.00;10.00;;;;;25.08;46.79;100660.28;146620;608;47016;-79
2022/08/03 02:42:04;;;;;;;;;10.50;10.50;;;;;24.97;46.82;100655.03;146622;576;46020;-78
2022/08/03 02:45:14;;;;;;;;;10.75;10.00;;;;;24.91;46.78;100659.53;146624;597;45017;-75
2022/08/03 02:48:13;;;;;;;;;14.25;13.00;;;;;24.91;46.99;100654.22;146621;569;46020;-76
2022/08/03 02:51:13;;;;;;;;;13.50;13.50;;;;;24.95;46.40;100650.66;146619;662;46919;-79
2022/08/03 02:54:30;;;;;;;;;10.75;10.75;;;;;25.04;46.15;100658.53;146625;569;45031;-73
2022/08/03 02:57:25;;;;;;;;;11.25;11.00;;;;;25.12;46.47;100659.34;146627;565;45035;-74
2022/08/03 03:00:30;;;;;;;;;12.75;10.50;;;;;25.19;46.09;100666.38;146626;747;45028;-74
2022/08/03 03:03:49;;;;;;;;;11.00;10.50;;;;;25.24;46.49;100666.34;146619;576;46016;-78
2022/08/03 03:06:51;;;;;;;;;13.50;13.25;;;;;25.27;46.51;100668.97;146627;619;46021;-74
2022/08/03 03:09:45;;;;;;;;;14.00;13.00;;;;;25.34;46.67;100668.00;146620;579;46016;-80
2022/08/03 03:13:05;;;;;;;;;12.25;11.00;;;;;25.43;46.03;100661.72;146622;671;46020;-79
2022/08/03 03:16:11;;;;;;;;;10.75;10.75;;;;;25.50;46.90;100664.28;146621;598;46017;-81
2022/08/03 03:19:13;;;;;;;;;10.75;10.25;;;;;25.39;47.15;100662.62;146628;611;45020;-81
2022/08/03 03:22:09;;;;;;;;;12.50;11.50;;;;;25.24;46.92;100669.00;146618;669;45017;-79
2022/08/03 03:25:14;;;;;;;;;9.75;9.75;;;;;25.20;47.12;100670.78;146609;563;46012;-82
2022/08/03 03:28:20;;;;;;;;;14.25;13.00;;;;;25.25;47.16;100673.41;146607;578;46012;-78
2022/08/03 03:31:22;;;;;;;;;10.75;10.50;;;;;25.28;47.35;100668.94;146611;625;45021;-78
2022/08/03 03:34:14;;;;;;;;;11.25;10.75;;;;;25.26;47.29;100676.03;146608;626;46014;-80
2022/08/03 03:37:10;;;;;;;;;11.25;10.50;;;;;25.24;47.68;100683.12;146610;630;46011;-79
2022/08/03 03:40:05;;;;;;;;;11.00;11.00;;;;;25.23;48.41;100681.34;146606;597;46919;-81
2022/08/03 03:43:15;;;;;;;;;12.75;12.75;;;;;25.19;47.58;100684.94;146610;579;46012;-76
2022/08/03 03:46:31;;;;;;;;;;;;;;;;;;;;;
2022/08/03 03:49:32;;;;;;;;;12.25;11.50;;;;;25.19;48.15;100694.69;146609;596;46020;-83
2022/08/03 03:52:32;;;;;;;;;12.00;10.25;;;;;25.24;49.03;100692.88;146605;569;46924;-81
2022/08/03 03:55:33;;;;;;;;;12.50;11.75;;;;;25.27;48.76;100690.19;146608;576;46010;-80
2022/08/03 03:58:28;;;;;;;;;13.75;12.50;;;;;25.37;49.62;100697.16;146607;738;46016;-82
2022/08/03 04:01:24;;;;;;;;;13.25;11.50;;;;;25.32;48.97;100689.22;146612;598;45012;-83
2022/08/03 04:11:17;;;;;;;;;12.25;11.25;;;;;25.28;48.83;100716.72;146605;577;47012;-82
2022/08/03 04:14:39;;;;;;;;;16.00;13.75;;;;;24.23;47.95;100529.28;146607;625;46012;-83
2022/08/03 04:17:38;;;;;;;;;13.25;13.25;;;;;25.40;49.56;100709.53;146609;704;46012;-78
2022/08/03 04:20:57;;;;;;;;;15.00;13.50;;;;;25.48;48.73;100728.91;146609;598;46010;-78
2022/08/03 04:24:07;;;;;;;;;13.00;12.00;;;;;25.49;49.06;100723.59;146607;606;46012;-76
2022/08/03 04:27:15;;;;;;;;;11.75;11.25;;;;;25.05;49.29;100642.59;146609;584;45020;-76
2022/08/03 04:30:21;;;;;;;;;13.50;12.00;;;;;25.62;49.04;100720.81;146606;664;46016;-74
2022/08/03 04:33:38;;;;;;;;;12.75;12.75;;;;;24.59;48.63;100538.72;146609;572;46010;-75
2022/08/03 04:36:42;;;;;;;;;12.75;12.00;;;;;25.78;49.43;100725.03;146607;599;46918;-77
2022/08/03 04:39:45;;;;;;;;;12.75;12.50;;;;;25.87;49.88;100729.41;146610;596;46010;-77
2022/08/03 04:42:51;;;;;;;;;12.00;11.75;;;;;26.05;50.32;100733.62;146605;595;47013;-76
2022/08/03 04:45:47;;;;;;;;;11.25;11.25;;;;;26.15;49.75;100733.50;146611;638;45021;-77
2022/08/03 04:48:48;;;;;;;;;12.00;11.50;;;;;26.32;49.08;100733.25;146608;608;46014;-74
2022/08/03 04:51:51;;;;;;;;;11.00;11.00;;;;;26.51;49.18;100736.56;146609;612;46021;-77
2022/08/03 04:54:57;;;;;;;;;11.75;11.50;;;;;25.61;47.42;100549.09;146607;578;46012;-84
2022/08/03 04:57:53;;;;;;;;;11.50;10.50;;;;;26.88;47.76;100738.69;146610;628;46021;-84
2022/08/03 05:01:00;;;;;;;;;10.00;10.00;;;;;27.10;48.15;100745.44;146607;686;46012;-85
2022/08/03 05:03:56;;;;;;;;;14.50;14.50;;;;;26.80;47.99;100653.69;146611;672;46010;-84
2022/08/03 05:06:59;;;;;;;;;12.50;12.50;;;;;27.53;47.60;100743.84;146604;573;46017;-82
2022/08/03 05:10:00;;;;;;;;;12.25;10.75;;;;;27.77;46.96;100739.84;146612;641;45030;-81
2022/08/03 05:12:56;;;;;;;;;11.50;11.25;;;;;28.03;46.96;100758.87;146610;606;46015;-85
2022/08/03 05:15:48;;;;;;;;;12.00;11.50;;;;;28.28;46.87;100753.91;146608;661;46021;-79
2022/08/03 05:18:41;;;;;;;;;13.00;11.25;;;;;28.54;46.38;100758.72;146604;640;46016;-79
2022/08/03 05:21:34;;;;;;;;;13.00;13.00;;;;;28.76;46.12;100766.25;146606;600;46021;-80
2022/08/03 05:24:29;;;;;;;;;13.25;12.50;;;;;29.05;45.50;100765.56;146607;566;46016;-80
2022/08/03 05:27:30;;;;;;;;;12.25;12.00;;;;;29.30;43.32;100768.50;146611;651;46032;-79
2022/08/03 05:30:28;;;;;;;;;12.00;12.00;;;;;29.49;42.85;100770.69;146608;569;46012;-78
2022/08/03 05:33:24;;;;;;;;;12.75;12.75;;;;;29.61;43.07;100771.28;146609;570;46010;-79
2022/08/03 05:36:26;;;;;;;;;13.00;12.75;;;;;29.76;42.63;100771.78;146608;564;46014;-79
2022/08/03 05:39:20;;;;;;;;;13.50;12.75;;;;;29.92;42.91;100774.00;146608;666;46020;-84
2022/08/03 05:42:14;;;;;;;;;9.75;9.75;;;;;30.08;43.64;100768.22;146608;703;46015;-85
2022/08/03 05:45:18;;;;;;;;;10.00;10.00;;;;;30.22;41.76;100767.81;146608;625;46010;-81
2022/08/03 05:48:12;;;;;;;;;11.50;10.75;;;;;30.34;42.73;100775.50;146610;643;46016;-78
2022/08/03 05:51:14;;;;;;;;;17.25;14.50;;;;;30.52;42.01;100776.75;146610;683;46010;-79
2022/08/03 05:54:20;;;;;;;;;12.50;11.25;;;;;30.70;41.74;100784.22;146606;581;46014;-79
2022/08/03 05:57:27;;;;;;;;;12.75;12.00;;;;;30.86;41.42;100781.94;146610;653;45020;-79
2022/08/03 06:00:30;;;;;;;;;13.50;12.00;;;;;31.01;41.21;100772.56;146605;576;46016;-80
2022/08/03 06:03:28;;;;;;;;;13.75;13.50;;;;;31.12;41.17;100781.09;146607;741;46020;-77
2022/08/03 06:06:30;;;;;;;;;10.50;10.50;;;;;31.21;40.92;100780.78;146608;654;46013;-78
2022/08/03 06:09:24;;;;;;;;;14.25;11.75;;;;;31.32;40.54;100787.62;146612;586;45012;-79
2022/08/03 06:12:37;;;;;;;;;;;;;;;;;;;;;
2022/08/03 06:15:40;;;;;;;;;13.00;12.00;;;;;31.56;40.01;100781.44;146609;622;46020;-78
2022/08/03 06:18:45;;;;;;;;;11.50;11.50;;;;;31.56;40.12;100767.16;146608;579;46012;-78
2022/08/03 06:21:41;;;;;;;;;15.50;13.00;;;;;31.60;39.86;100776.84;146609;604;46010;-79
2022/08/03 06:24:39;;;;;;;;;10.50;10.50;;;;;31.14;39.67;100698.91;146607;598;46016;-80
2022/08/03 06:27:47;;;;;;;;;14.75;11.25;;;;;31.54;39.89;100782.44;146608;671;46020;-80
2022/08/03 06:30:42;;;;;;;;;12.75;12.75;;;;;31.55;39.53;100778.81;146606;598;46016;-70
2022/08/03 06:33:44;;;;;;;;;12.25;12.25;;;;;31.59;40.03;100785.81;146610;624;46010;-79
2022/08/03 06:36:38;;;;;;;;;13.50;12.50;;;;;31.72;39.78;100792.50;146607;592;46017;-75
2022/08/03 06:39:32;;;;;;;;;11.50;11.50;;;;;31.85;39.16;100796.50;146610;677;46010;-79
2022/08/03 06:42:28;;;;;;;;;12.75;11.50;;;;;31.92;39.22;100786.44;146604;569;46017;-75
2022/08/03 06:45:27;;;;;;;;;12.75;12.75;;;;;31.98;39.62;100788.91;146610;570;46019;-75
2022/08/03 06:48:25;;;;;;;;;11.25;10.00;;;;;32.12;38.53;100789.28;146607;584;46014;-75
2022/08/03 06:51:19;;;;;;;;;12.00;12.00;;;;;32.19;38.65;100788.12;146608;566;46021;-76
2022/08/03 06:54:13;;;;;;;;;13.00;12.00;;;;;32.34;38.63;100788.47;146608;591;46012;-76
2022/08/03 06:57:18;;;;;;;;;11.50;10.75;;;;;32.53;38.74;100794.91;146608;738;46010;-77
2022/08/03 07:00:16;;;;;;;;;15.50;14.50;;;;;32.72;38.32;100792.38;146605;608;46016;-77
2022/08/03 07:03:23;;;;;;;;;16.50;14.25;;;;;31.97;37.66;100629.81;146609;610;46020;-76
2022/08/03 07:06:19;;;;;;;;;19.00;16.00;;;;;32.98;37.84;100794.03;146607;631;47012;-77
2022/08/03 07:09:25;;;;;;;;;30.50;20.00;;;;;33.12;36.86;100793.50;146608;606;45020;-77
2022/08/03 07:12:46;;;;;;;;;10.50;10.50;;;;;33.21;35.75;100795.78;146608;694;46018;-75
2022/08/03 07:15:59;;;;;;;;;10.00;10.00;;;;;33.22;36.33;100792.16;146612;608;46010;-75
2022/08/03 07:19:09;;;;;;;;;10.25;10.25;;;;;33.28;36.70;100789.22;146606;569;46016;-75
2022/08/03 07:22:07;;;;;;;;;8.75;8.50;;;;;33.33;35.87;100794.38;146606;642;46020;-76
2022/08/03 07:25:00;;;;;;;;;10.25;10.25;;;;;33.37;35.85;100792.47;146609;628;46012;-76
2022/08/03 07:28:01;;;;;;;;;10.25;10.25;;;;;32.93;35.47;100725.28;146611;599;46012;-77
2022/08/03 07:31:09;;;;;;;;;14.00;12.00;;;;;33.33;35.83;100797.97;146604;640;47016;-77
2022/08/03 07:34:05;;;;;;;;;11.00;11.00;;;;;33.28;36.80;100796.41;146606;595;46010;-77
2022/08/03 07:37:15;;;;;;;;;10.00;10.00;;;;;33.28;36.96;100797.28;146605;614;48920;-76
2022/08/03 07:40:10;;;;;;;;;14.25;12.50;;;;;33.27;38.49;100805.38;146608;614;46020;-75
2022/08/03 07:43:08;;;;;;;;;11.75;11.75;;;;;33.25;39.17;100804.59;146607;670;45017;-76
2022/08/03 07:46:15;;;;;;;;;12.00;10.00;;;;;33.19;39.61;100811.09;146606;571;46020;-74
2022/08/03 07:49:12;;;;;;;;;12.50;11.25;;;;;33.05;39.34;100811.66;146608;571;46013;-78
2022/08/03 07:55:25;;;;;;;;;8.50;8.50;;;;;32.93;39.47;100820.19;146607;565;46015;-77
2022/08/03 07:58:21;;;;;;;;;9.75;9.75;;;;;32.91;40.15;100815.81;146610;632;46020;-76
2022/08/03 08:01:25;;;;;;;;;11.25;11.25;;;;;32.93;40.56;100808.56;146605;582;46016;-74
2022/08/03 08:04:38;;;;;;;;;;;;;;;;;;;;;
2022/08/03 08:07:35;;;;;;;;;11.75;10.50;;;;;32.89;39.61;100822.09;146609;679;45016;-76
2022/08/03 08:10:31;;;;;;;;;11.75;11.00;;;;;32.93;39.94;100828.25;146608;704;46020;-77
2022/08/03 08:13:28;;;;;;;;;7.75;7.50;;;;;32.98;40.14;100820.03;146606;633;46016;-75
2022/08/03 08:16:31;;;;;;;;;8.50;8.00;;;;;32.97;39.56;100829.00;146609;667;46020;-76
2022/08/03 08:19:31;;;;;;;;;10.00;10.00;;;;;32.90;39.70;100823.00;146606;583;47012;-79
2022/08/03 08:22:24;;;;;;;;;10.25;10.25;;;;;32.89;39.29;100823.91;146611;627;46010;-76
2022/08/03 08:25:18;;;;;;;;;11.50;11.50;;;;;32.89;39.22;100829.28;146613;572;46015;-75
2022/08/03 08:28:12;;;;;;;;;11.50;11.25;;;;;32.95;39.60;100825.50;146613;704;46020;-76
2022/08/03 08:31:23;;;;;;;;;11.00;11.00;;;;;31.97;39.46;100669.16;146611;569;46016;-73
2022/08/03 08:34:15;;;;;;;;;9.50;9.50;;;;;32.91;39.21;100823.87;146617;569;45012;-73
2022/08/03 08:37:08;;;;;;;;;10.25;10.25;;;;;32.90;38.94;100831.06;146611;587;47012;-76
2022/08/03 08:40:07;;;;;;;;;10.50;10.50;;;;;32.84;38.86;100834.84;146612;565;46020;-74
2022/08/03 08:43:02;;;;;;;;;11.50;11.00;;;;;32.87;39.71;100828.50;146612;569;46919;-77
2022/08/03 08:46:12;;;;;;;;;10.50;10.25;;;;;31.87;38.95;100648.94;146614;574;46020;-77
2022/08/03 08:49:15;;;;;;;;;12.00;12.00;;;;;32.98;38.97;100828.09;146614;599;46012;-79
2022/08/03 08:52:24;;;;;;;;;12.75;11.50;;;;;33.01;40.44;100830.66;146615;611;46010;-76
2022/08/03 08:55:53;;;;;;;;;7.00;7.00;;;;;32.14;39.43;100664.00;146611;571;46018;-80
2022/08/03 08:59:12;;;;;;;;;9.25;9.25;;;;;33.10;40.18;100825.78;146618;653;46012;-77
2022/08/03 09:02:10;;;;;;;;;10.00;10.00;;;;;33.14;39.24;100829.22;146612;619;46920;-77
2022/08/03 09:05:22;;;;;;;;;10.50;10.00;;;;;33.14;38.67;100826.53;146612;576;46021;-76
2022/08/03 09:08:22;;;;;;;;;10.50;10.00;;;;;33.09;39.40;100820.47;146613;609;46012;-77
2022/08/03 09:11:40;;;;;;;;;9.75;9.75;;;;;33.08;39.03;100816.87;146617;571;46012;-77
2022/08/03 09:14:41;;;;;;;;;11.75;9.50;;;;;33.12;40.04;100820.34;146612;703;46918;-75
2022/08/03 09:17:47;;;;;;;;;9.00;8.00;;;;;33.16;39.47;100823.78;146616;655;46012;-75
2022/08/03 09:20:45;;;;;;;;;10.75;10.75;;;;;33.15;39.98;100824.69;146614;600;45016;-77
2022/08/03 09:24:19;;;;;;;;;;;;;;;;;;;;;
2022/08/03 09:27:15;;;;;;;;;9.75;9.00;;;;;33.18;40.18;100819.19;146606;581;46922;-77
2022/08/03 09:30:27;;;;;;;;;12.00;10.00;;;;;33.16;40.45;100815.72;146610;691;45020;-78
2022/08/03 09:33:32;;;;;;;;;10.25;9.25;;;;;33.20;39.89;100817.34;146607;629;46013;-76
2022/08/03 09:36:57;;;;;;;;;9.25;8.50;;;;;32.30;40.05;100653.53;146608;581;46020;-77
2022/08/03 09:39:59;;;;;;;;;10.75;10.00;;;;;33.27;40.15;100808.06;146609;619;46013;-74
2022/08/03 09:43:16;;;;;;;;;10.50;9.50;;;;;32.35;39.56;100648.00;146611;616;46020;-76
2022/08/03 09:46:17;;;;;;;;;13.00;12.00;;;;;33.29;39.33;100804.38;146608;711;46012;-75
2022/08/03 09:49:23;;;;;;;;;10.25;10.25;;;;;33.29;39.83;100809.75;146609;591;46020;-76
2022/08/03 09:52:41;;;;;;;;;10.50;10.00;;;;;33.34;39.20;100814.97;146607;639;46016;-78
2022/08/03 09:55:55;;;;;;;;;8.25;8.00;;;;;33.39;39.39;100809.38;146613;584;46010;-76
2022/08/03 09:59:04;;;;;;;;;9.75;9.75;;;;;32.39;39.38;100642.44;146608;616;46016;-78
2022/08/03 10:02:04;;;;;;;;;10.50;9.75;;;;;33.34;39.76;100798.84;146611;635;46020;-75
2022/08/03 10:05:00;;;;;;;;;6.50;6.50;;;;;33.34;38.92;100797.03;146609;592;46012;-78
2022/08/03 10:07:53;;;;;;;;;7.50;7.50;;;;;33.42;38.48;100799.37;146611;713;46010;-79
2022/08/03 10:11:16;;;;;;;;;8.25;8.25;;;;;33.47;39.01;100794.69;146606;676;46017;-78
2022/08/03 10:14:21;;;;;;;;;9.00;9.00;;;;;33.64;37.64;100799.34;146609;676;46020;-77
2022/08/03 10:17:23;;;;;;;;;8.00;8.00;;;;;33.79;37.47;100795.12;146606;657;46016;-78
2022/08/03 10:20:22;;;;;;;;;7.25;7.25;;;;;33.90;36.31;100795.53;146609;570;46018;-78
2022/08/03 10:23:23;;;;;;;;;6.50;6.50;;;;;33.94;36.61;100796.25;146605;569;46016;-78
2022/08/03 10:26:27;;;;;;;;;8.75;8.75;;;;;33.93;36.55;100790.00;146609;571;46010;-77
2022/08/03 10:29:27;;;;;;;;;7.25;7.25;;;;;33.78;36.74;100796.06;146607;707;46012;-79
2022/08/03 10:32:59;;;;;;;;;7.25;6.25;;;;;33.62;37.24;100795.88;146608;636;46020;-77
2022/08/03 10:36:00;;;;;;;;;7.00;6.00;;;;;33.61;36.56;100793.22;146608;581;46016;-77
2022/08/03 10:39:23;;;;;;;;;7.00;6.00;;;;;33.59;37.43;100792.44;146610;651;46012;-74
2022/08/03 10:42:37;;;;;;;;;;;;;;;;;;;;;
2022/08/03 10:45:34;;;;;;;;;5.00;5.00;;;;;33.45;37.44;100785.78;146609;579;46020;-77
2022/08/03 10:48:36;;;;;;;;;6.00;5.00;;;;;33.34;37.30;100786.28;146606;574;46012;-77
2022/08/03 10:51:37;;;;;;;;;7.75;6.00;;;;;33.37;36.67;100779.91;146606;685;46020;-76
2022/08/03 10:58:16;;;;;;;;;7.75;7.50;;;;;33.66;36.20;100770.59;146611;629;46010;-77
2022/08/03 11:01:15;;;;;;;;;4.00;4.00;;;;;33.88;35.76;100767.81;146606;663;46013;-77
2022/08/03 11:04:33;;;;;;;;;6.25;6.25;;;;;34.11;36.74;100769.47;146608;704;47012;-76
2022/08/03 11:07:42;;;;;;;;;8.00;6.75;;;;;34.16;36.22;100763.91;146607;608;46006;-75
2022/08/03 11:10:42;;;;;;;;;4.25;3.75;;;;;34.14;35.10;100769.34;146609;705;46010;-79
2022/08/03 11:13:40;;;;;;;;;5.75;4.75;;;;;34.11;35.77;100774.84;146605;577;46014;-78
2022/08/03 11:16:47;;;;;;;;;6.75;6.75;;;;;33.78;37.00;100743.16;146608;618;45021;-80
2022/08/03 11:19:56;;;;;;;;;6.75;6.00;;;;;34.05;37.40;100771.56;146605;649;46016;-79
2022/08/03 11:22:58;;;;;;;;;4.00;4.00;;;;;34.08;36.49;100766.94;146608;636;47010;-78
2022/08/03 11:26:22;;;;;;;;;7.50;7.00;;;;;34.08;36.41;100756.16;146607;584;46921;-76
2022/08/03 11:29:38;;;;;;;;;7.50;6.75;;;;;34.03;35.69;100750.13;146607;670;46020;-76
2022/08/03 11:33:02;;;;;;;;;5.00;5.00;;;;;33.02;36.30;100590.63;146608;630;47012;-76
2022/08/03 11:36:15;;;;;;;;;5.75;4.75;;;;;33.87;36.12;100749.94;146610;606;46012;-78
2022/08/03 11:39:20;;;;;;;;;6.50;5.50;;;;;33.77;36.68;100759.34;146606;671;46016;-76
2022/08/03 11:42:47;;;;;;;;;7.00;6.00;;;;;32.77;36.31;100602.41;146610;576;46020;-75
2022/08/03 11:45:59;;;;;;;;;5.00;4.00;;;;;33.63;35.46;100751.03;146605;633;46014;-77
2022/08/03 11:49:14;;;;;;;;;6.25;6.00;;;;;32.79;35.87;100583.56;146608;629;46020;-76
2022/08/03 11:52:09;;;;;;;;;4.00;4.00;;;;;33.82;35.98;100749.25;146607;588;46012;-77
2022/08/03 11:55:15;;;;;;;;;4.75;3.75;;;;;33.97;35.07;100753.94;146610;565;46020;-76
2022/08/03 11:58:19;;;;;;;;;5.25;5.25;;;;;34.12;33.98;100743.47;146605;626;46016;-75
2022/08/03 12:01:11;;;;;;;;;7.00;7.00;;;;;34.22;33.50;100736.69;146612;637;45021;-78
2022/08/03 12:04:16;;;;;;;;;5.50;5.50;;;;;34.31;34.88;100738.09;146607;573;46016;-79
2022/08/03 12:07:11;;;;;;;;;4.75;4.25;;;;;34.40;34.06;100745.72;146606;684;46021;-77
2022/08/03 12:10:17;;;;;;;;;5.00;4.75;;;;;34.39;34.45;100738.59;146606;579;46906;-76
2022/08/03 12:13:31;;;;;;;;;;;;;;;;;;;;;
2022/08/03 12:16:28;;;;;;;;;5.50;5.50;;;;;34.39;34.56;100731.38;146607;577;46012;-77
2022/08/03 12:19:34;;;;;;;;;;;;;;;;;;;;;
2022/08/03 12:22:50;;;;;;;;;5.75;5.75;;;;;34.46;34.32;100719.38;146607;723;46021;-77
2022/08/03 12:25:56;;;;;;;;;5.00;5.00;;;;;33.53;34.23;100565.94;146608;694;46020;-75
2022/08/03 12:28:59;;;;;;;;;4.25;4.25;;;;;34.38;33.60;100718.00;146606;603;46016;-77
2022/08/03 12:32:03;;;;;;;;;5.00;5.00;;;;;34.31;34.24;100716.56;146607;622;46020;-77
2022/08/03 12:35:08;;;;;;;;;5.50;5.50;;;;;34.33;35.07;100715.53;146604;619;46012;-76
2022/08/03 12:38:35;;;;;;;;;5.25;5.25;;;;;34.47;34.81;100713.03;146608;582;46020;-77
2022/08/03 12:41:59;;;;;;;;;6.00;6.00;;;;;33.64;34.08;100551.97;146610;691;45033;-79
2022/08/03 12:44:55;;;;;;;;;4.75;4.75;;;;;34.54;33.68;100710.09;146608;713;47012;-77
2022/08/03 12:48:17;;;;;;;;;6.00;6.00;;;;;33.66;34.09;100546.53;146609;639;46012;-79
2022/08/03 12:51:29;;;;;;;;;;;;;;;;;;;;;
2022/08/03 12:54:25;;;;;;;;;5.00;5.00;;;;;34.64;33.25;100695.22;146607;626;46012;-77
2022/08/03 12:57:43;;;;;;;;;4.00;4.00;;;;;34.64;34.54;100695.22;146609;601;46010;-78
2022/08/03 13:00:57;;;;;;;;;5.00;4.25;;;;;34.59;33.88;100689.19;146604;605;46017;-75
2022/08/03 13:04:04;;;;;;;;;;;;;;;;;;;;;
2022/08/03 13:07:20;;;;;;;;;6.67;5.67;;;;;34.55;33.55;100690.28;146611;599;46012;-76
2022/08/03 13:10:46;;;;;;;;;;;;;;;;;;;;;
2022/08/03 13:13:47;;;;;;;;;5.50;5.50;;;;;34.59;32.68;100684.69;146605;689;46016;-77
2022/08/03 13:16:49;;;;;;;;;5.00;5.00;;;;;34.45;33.37;100681.75;146611;628;46019;-75
2022/08/03 13:19:43;;;;;;;;;4.33;4.33;;;;;34.43;32.44;100683.66;146607;565;46014;-76
2022/08/03 13:22:52;;;;;;;;;2.75;2.25;;;;;34.52;33.96;100675.16;146608;606;46021;-74
2022/08/03 13:25:44;;;;;;;;;4.75;4.50;;;;;34.54;32.74;100669.69;146608;616;46012;-75
2022/08/03 13:28:38;;;;;;;;;5.25;5.25;;;;;34.64;31.88;100668.28;146612;594;46011;-76
2022/08/03 13:31:37;;;;;;;;;5.00;4.25;;;;;34.67;32.21;100663.66;146602;693;48919;-75
2022/08/03 13:34:32;;;;;;;;;5.00;5.00;;;;;34.70;32.62;100665.28;146610;582;46020;-75
2022/08/03 13:37:30;;;;;;;;;5.50;5.00;;;;;34.81;31.84;100662.94;146610;687;46012;-74
2022/08/03 13:40:25;;;;;;;;;4.25;4.25;;;;;34.87;31.22;100672.53;146611;678;46012;-76
2022/08/03 13:43:29;;;;;;;;;3.00;3.00;;;;;34.89;30.91;100670.63;146608;658;46021;-77
2022/08/03 13:46:25;;;;;;;;;4.00;4.00;;;;;34.87;30.21;100653.69;146609;605;46020;-77
2022/08/03 13:49:26;;;;;;;;;3.00;3.00;;;;;34.83;30.93;100652.97;146606;650;46016;-74
2022/08/03 13:52:19;;;;;;;;;4.25;4.25;;;;;34.80;30.60;100644.16;146608;564;46020;-76
2022/08/03 13:55:15;;;;;;;;;4.50;4.50;;;;;34.82;31.23;100635.03;146606;579;46016;-76
2022/08/03 13:58:11;;;;;;;;;6.00;5.00;;;;;34.82;30.79;100640.44;146609;710;46021;-75
2022/08/03 14:01:14;;;;;;;;;5.25;5.25;;;;;34.80;30.82;100642.34;146607;564;46017;-76
2022/08/03 14:04:08;;;;;;;;;5.75;5.75;;;;;34.76;31.04;100643.44;146610;705;46020;-77
2022/08/03 14:07:23;;;;;;;;;4.25;4.25;;;;;33.83;32.76;100490.12;146607;608;47013;-78
2022/08/03 14:10:18;;;;;;;;;3.25;3.25;;;;;34.71;30.63;100642.81;146608;580;46020;-76
2022/08/03 14:13:17;;;;;;;;;5.25;5.25;;;;;34.66;31.18;100634.94;146606;570;46016;-76
2022/08/03 14:16:20;;;;;;;;;6.00;5.00;;;;;34.61;31.25;100642.41;146611;674;46012;-74
2022/08/03 14:19:15;;;;;;;;;5.75;5.75;;;;;34.60;31.33;100640.66;146609;686;46014;-77
2022/08/03 14:22:14;;;;;;;;;4.00;4.00;;;;;34.65;31.53;100635.03;146607;604;46021;-75
2022/08/03 14:25:15;;;;;;;;;5.00;5.00;;;;;34.64;31.01;100634.19;146607;569;46016;-77
2022/08/03 14:28:16;;;;;;;;;3.00;3.00;;;;;34.64;32.34;100649.44;146607;681;46012;-76
2022/08/03 14:31:14;;;;;;;;;5.50;5.50;;;;;34.47;34.57;100651.13;146608;592;46016;-79
2022/08/03 14:34:13;;;;;;;;;7.00;7.00;;;;;34.17;34.21;100655.31;146609;678;46018;-74